createdAt,value
2022-10-05T00:01:11.303Z,8.28
2022-10-05T00:04:21.990Z,8.24
2022-10-05T00:07:25.031Z,8.27
2022-10-05T00:10:29.330Z,8.24
2022-10-05T00:13:31.835Z,8.21
2022-10-05T00:16:35.003Z,8.14
2022-10-05T00:19:38.769Z,8.04
2022-10-05T00:22:41.638Z,8.04
2022-10-05T00:25:44.268Z,7.98
2022-10-05T00:28:47.601Z,7.89
2022-10-05T00:31:50.537Z,7.92
2022-10-05T00:34:53.675Z,7.75
2022-10-05T00:37:57.133Z,7.78
2022-10-05T00:41:13.669Z,7.78
2022-10-05T00:44:43.441Z,7.77
2022-10-05T00:48:01.580Z,7.66
2022-10-05T00:51:26.287Z,7.61
2022-10-05T00:54:36.733Z,7.59
2022-10-05T00:58:21.563Z,7.60
2022-10-05T01:01:33.203Z,7.58
2022-10-05T01:04:44.634Z,7.59
2022-10-05T01:07:47.503Z,7.51
2022-10-05T01:11:19.151Z,7.53
2022-10-05T01:14:32.709Z,7.51
2022-10-05T01:17:35.162Z,7.43
2022-10-05T01:21:03.403Z,7.41
2022-10-05T01:24:24.235Z,7.47
2022-10-05T01:27:55.951Z,7.45
2022-10-05T01:31:01.475Z,7.22
2022-10-05T01:34:13.785Z,7.33
2022-10-05T01:37:30.361Z,7.36
2022-10-05T01:40:45.374Z,7.38
2022-10-05T01:43:52.583Z,7.36
2022-10-05T01:47:19.979Z,7.25
2022-10-05T01:50:42.956Z,7.33
2022-10-05T01:54:12.997Z,7.26
2022-10-05T01:57:27.693Z,7.27
2022-10-05T02:00:33.718Z,7.16
2022-10-05T02:03:50.200Z,7.19
2022-10-05T02:06:53.305Z,7.19
2022-10-05T02:10:01.988Z,7.19
2022-10-05T02:13:11.846Z,7.23
2022-10-05T02:16:17.940Z,7.20
2022-10-05T02:19:27.700Z,7.18
2022-10-05T02:22:49.759Z,7.18
2022-10-05T02:25:54.429Z,7.07
2022-10-05T02:29:03.480Z,7.03
2022-10-05T02:32:17.272Z,7.04
2022-10-05T02:35:21.880Z,7.04
2022-10-05T02:38:34.258Z,7.05
2022-10-05T02:42:02.269Z,7.01
2022-10-05T02:45:10.935Z,6.94
2022-10-05T02:48:19.647Z,6.93
2022-10-05T02:51:27.693Z,6.92
2022-10-05T02:54:58.774Z,6.88
2022-10-05T02:58:18.500Z,6.86
2022-10-05T03:01:30.719Z,6.89
2022-10-05T03:04:54.967Z,6.81
2022-10-05T03:08:06.032Z,6.72
2022-10-05T03:11:27.991Z,6.82
2022-10-05T03:14:38.335Z,6.71
2022-10-05T03:17:58.933Z,6.72
2022-10-05T03:21:07.678Z,6.68
2022-10-05T03:24:10.206Z,6.68
2022-10-05T03:27:31.529Z,6.66
2022-10-05T03:30:45.519Z,6.67
2022-10-05T03:33:56.512Z,6.62
2022-10-05T03:37:03.340Z,6.53
2022-10-05T03:40:26.257Z,6.49
2022-10-05T03:43:57.327Z,6.63
2022-10-05T03:47:00.299Z,6.62
2022-10-05T03:50:24.869Z,6.64
2022-10-05T03:53:30.385Z,6.58
2022-10-05T03:56:43.848Z,6.58
2022-10-05T03:59:46.910Z,6.60
2022-10-05T04:03:10.347Z,6.57
2022-10-05T04:06:21.155Z,6.56
2022-10-05T04:09:39.995Z,6.49
2022-10-05T04:12:48.027Z,6.44
2022-10-05T04:16:14.233Z,6.48
2022-10-05T04:19:23.558Z,6.43
2022-10-05T04:22:32.362Z,6.48
2022-10-05T04:25:45.465Z,6.46
2022-10-05T04:28:58.348Z,6.52
2022-10-05T04:32:16.352Z,6.43
2022-10-05T04:35:48.281Z,6.42
2022-10-05T04:39:00.817Z,6.46
2022-10-05T04:42:25.621Z,6.47
2022-10-05T04:45:45.522Z,6.35
2022-10-05T04:49:11.638Z,6.34
2022-10-05T04:52:42.093Z,6.36
2022-10-05T04:56:02.038Z,6.35
2022-10-05T04:59:43.152Z,6.40
2022-10-05T05:03:15.645Z,6.38
2022-10-05T05:06:30.878Z,6.36
2022-10-05T05:09:59.628Z,6.37
2022-10-05T05:13:28.243Z,6.35
2022-10-05T05:16:40.607Z,6.34
2022-10-05T05:19:55.872Z,6.28
2022-10-05T05:23:21.256Z,6.38
2022-10-05T05:26:29.614Z,6.44
2022-10-05T05:30:04.642Z,6.47
2022-10-05T05:33:23.752Z,6.50
2022-10-05T05:36:46.071Z,6.58
2022-10-05T05:39:49.116Z,6.61
2022-10-05T05:42:59.631Z,6.73
2022-10-05T05:46:15.922Z,6.77
2022-10-05T05:49:27.827Z,6.85
2022-10-05T05:52:34.724Z,6.95
2022-10-05T05:55:42.762Z,6.99
2022-10-05T05:58:51.869Z,7.09
2022-10-05T06:02:11.571Z,7.13
2022-10-05T06:05:23.754Z,7.19
2022-10-05T06:08:49.770Z,7.20
2022-10-05T06:12:00.963Z,7.31
2022-10-05T06:15:24.599Z,7.37
2022-10-05T06:18:28.594Z,7.44
2022-10-05T06:21:58.095Z,7.56
2022-10-05T06:25:06.911Z,7.70
2022-10-05T06:28:11.222Z,7.81
2022-10-05T06:31:20.975Z,7.96
2022-10-05T06:34:38.136Z,8.02
2022-10-05T06:37:59.307Z,8.19
2022-10-05T06:41:05.033Z,8.30
2022-10-05T06:44:16.314Z,8.42
2022-10-05T06:47:43.872Z,8.55
2022-10-05T06:50:52.903Z,8.70
2022-10-05T06:54:23.159Z,8.94
2022-10-05T06:57:49.762Z,9.05
2022-10-05T07:01:00.193Z,9.10
2022-10-05T07:04:24.817Z,9.33
2022-10-05T07:08:01.413Z,9.42
2022-10-05T07:11:07.233Z,9.64
2022-10-05T07:14:14.415Z,9.67
2022-10-05T07:17:23.367Z,9.87
2022-10-05T07:20:44.491Z,10.02
2022-10-05T07:23:52.933Z,10.19
2022-10-05T07:27:13.991Z,10.30
2022-10-05T07:30:17.205Z,10.58
2022-10-05T07:33:25.920Z,10.71
2022-10-05T07:36:56.819Z,10.85
2022-10-05T07:40:08.706Z,10.99
2022-10-05T07:43:17.853Z,11.22
2022-10-05T07:46:43.631Z,11.37
2022-10-05T07:50:04.210Z,11.57
2022-10-05T07:53:22.621Z,11.82
2022-10-05T07:56:36.929Z,12.03
2022-10-05T08:00:32.560Z,12.19
2022-10-05T08:03:54.823Z,12.42
2022-10-05T08:07:00.929Z,12.63
2022-10-05T08:10:55.259Z,12.77
2022-10-05T08:14:16.685Z,12.94
2022-10-05T08:17:29.685Z,13.21
2022-10-05T08:20:40.059Z,13.42
2022-10-05T08:23:50.834Z,13.63
2022-10-05T08:27:10.223Z,13.85
2022-10-05T08:30:15.373Z,14.07
2022-10-05T08:33:19.174Z,14.28
2022-10-05T08:36:39.209Z,14.55
2022-10-05T08:40:10.648Z,14.75
2022-10-05T08:43:35.439Z,15.00
2022-10-05T08:46:47.087Z,15.26
2022-10-05T08:50:27.964Z,15.52
2022-10-05T08:54:11.737Z,15.67
2022-10-05T08:57:40.480Z,15.80
2022-10-05T09:01:03.227Z,15.97
2022-10-05T09:08:20.998Z,16.39
2022-10-05T09:11:36.794Z,16.53
2022-10-05T09:15:24.435Z,16.66
2022-10-05T09:18:41.306Z,16.78
2022-10-05T09:22:22.730Z,16.94
2022-10-05T09:25:40.528Z,16.95
2022-10-05T09:28:48.936Z,17.02
2022-10-05T09:32:29.568Z,17.14
2022-10-05T09:36:07.446Z,17.27
2022-10-05T09:39:15.395Z,17.40
2022-10-05T09:42:24.283Z,17.60
2022-10-05T09:45:54.450Z,17.69
2022-10-05T09:49:15.172Z,17.89
2022-10-05T09:52:33.832Z,18.07
2022-10-05T09:56:09.921Z,18.05
2022-10-05T10:00:09.742Z,18.13
2022-10-05T10:03:43.021Z,18.08
2022-10-05T10:07:05.055Z,18.08
2022-10-05T10:10:29.392Z,18.12
2022-10-05T10:14:02.471Z,18.20
2022-10-05T10:17:10.538Z,18.41
2022-10-05T10:20:25.817Z,18.57
2022-10-05T10:24:09.782Z,18.65
2022-10-05T10:27:52.427Z,18.83
2022-10-05T10:31:35.556Z,18.89
2022-10-05T10:35:19.991Z,18.86
2022-10-05T10:38:58.425Z,18.83
2022-10-05T10:42:10.591Z,18.73
2022-10-05T10:45:20.127Z,18.48
2022-10-05T10:48:28.907Z,18.51
2022-10-05T10:51:37.022Z,18.55
2022-10-05T10:54:57.511Z,18.63
2022-10-05T10:58:21.467Z,18.63
2022-10-05T11:01:34.796Z,18.60
2022-10-05T11:05:02.945Z,18.56
2022-10-05T11:08:08.836Z,18.63
2022-10-05T11:11:30.977Z,18.64
2022-10-05T11:14:52.475Z,18.61
2022-10-05T11:18:10.251Z,18.74
2022-10-05T11:21:31.823Z,18.80
2022-10-05T11:24:50.253Z,18.87
2022-10-05T11:28:15.218Z,18.86
2022-10-05T11:31:37.441Z,18.86
2022-10-05T11:35:01.755Z,18.90
2022-10-05T11:38:21.689Z,18.89
2022-10-05T11:41:42.847Z,18.88
2022-10-05T11:45:23.164Z,18.89
2022-10-05T11:48:55.502Z,18.97
2022-10-05T11:52:34.142Z,18.89
2022-10-05T11:55:49.817Z,18.97
2022-10-05T11:59:31.397Z,18.97
2022-10-05T12:02:58.408Z,19.06
2022-10-05T12:06:23.421Z,19.11
2022-10-05T12:09:38.674Z,19.13
2022-10-05T12:13:02.653Z,19.19
2022-10-05T12:16:10.783Z,19.24
2022-10-05T12:19:19.044Z,19.23
2022-10-05T12:22:33.184Z,19.29
2022-10-05T12:25:58.756Z,19.26
2022-10-05T12:29:10.358Z,19.33
2022-10-05T12:32:19.112Z,19.35
2022-10-05T12:35:49.510Z,19.24
2022-10-05T12:38:54.796Z,19.40
2022-10-05T12:42:26.059Z,19.35
2022-10-05T12:45:53.688Z,19.31
2022-10-05T12:49:13.244Z,19.36
2022-10-05T12:53:01.894Z,19.37
2022-10-05T12:56:10.314Z,19.30
2022-10-05T12:59:22.138Z,19.34
2022-10-05T13:02:39.231Z,19.43
2022-10-05T13:06:02.741Z,19.40
2022-10-05T13:09:28.966Z,19.36
2022-10-05T13:13:05.540Z,19.39
2022-10-05T13:16:11.250Z,19.39
2022-10-05T13:19:32.692Z,19.43
2022-10-05T13:22:43.921Z,19.47
2022-10-05T13:26:07.832Z,19.49
2022-10-05T13:29:54.323Z,19.57
2022-10-05T13:32:57.978Z,19.64
2022-10-05T13:36:03.567Z,19.61
2022-10-05T13:39:37.551Z,19.65
2022-10-05T13:42:44.674Z,19.59
2022-10-05T13:45:57.005Z,19.56
2022-10-05T13:49:07.106Z,19.55
2022-10-05T13:52:30.932Z,19.54
2022-10-05T13:55:54.729Z,19.50
2022-10-05T13:59:30.432Z,19.49
2022-10-05T14:02:43.982Z,19.36
2022-10-05T14:05:56.407Z,19.40
2022-10-05T14:09:00.442Z,19.38
2022-10-05T14:12:03.260Z,19.37
2022-10-05T14:15:30.523Z,19.38
2022-10-05T14:18:37.221Z,19.23
2022-10-05T14:22:02.919Z,19.27
2022-10-05T14:25:08.618Z,19.28
2022-10-05T14:28:29.513Z,19.26
2022-10-05T14:31:37.196Z,19.28
2022-10-05T14:34:57.374Z,19.25
2022-10-05T14:38:02.815Z,19.20
2022-10-05T14:41:19.350Z,19.16
2022-10-05T14:47:50.485Z,19.03
2022-10-05T14:50:59.555Z,19.00
2022-10-05T14:54:14.937Z,18.99
2022-10-05T14:57:25.295Z,18.98
2022-10-05T15:00:28.845Z,18.93
2022-10-05T15:03:57.790Z,18.86
2022-10-05T15:07:31.242Z,18.83
2022-10-05T15:10:43.425Z,18.77
2022-10-05T15:13:48.633Z,18.70
2022-10-05T15:17:02.540Z,18.62
2022-10-05T15:20:24.633Z,18.58
2022-10-05T15:23:35.774Z,18.50
2022-10-05T15:26:59.198Z,18.45
2022-10-05T15:30:11.833Z,18.34
2022-10-05T15:33:28.830Z,18.25
2022-10-05T15:36:54.552Z,18.20
2022-10-05T15:40:00.141Z,18.13
2022-10-05T15:43:20.192Z,18.05
2022-10-05T15:46:34.199Z,18.00
2022-10-05T15:50:04.767Z,17.92
2022-10-05T15:53:13.644Z,17.90
2022-10-05T15:56:23.621Z,17.81
2022-10-05T16:00:00.392Z,17.69
2022-10-05T16:03:26.225Z,17.63
2022-10-05T16:06:59.481Z,17.52
2022-10-05T16:10:21.476Z,17.45
2022-10-05T16:13:36.002Z,17.35
2022-10-05T16:16:47.835Z,17.15
2022-10-05T16:19:59.723Z,17.09
2022-10-05T16:23:14.075Z,16.99
2022-10-05T16:26:32.695Z,16.89
2022-10-05T16:29:50.608Z,16.81
2022-10-05T16:33:15.973Z,16.65
2022-10-05T16:36:40.124Z,16.58
2022-10-05T16:39:52.057Z,16.43
2022-10-05T16:43:00.884Z,16.39
2022-10-05T16:46:22.414Z,16.31
2022-10-05T16:49:31.487Z,16.25
2022-10-05T16:52:37.415Z,16.18
2022-10-05T16:55:45.437Z,16.12
2022-10-05T16:59:44.090Z,16.04
2022-10-05T17:03:10.286Z,15.89
2022-10-05T17:06:36.991Z,15.80
2022-10-05T17:10:01.314Z,15.72
2022-10-05T17:13:16.401Z,15.60
2022-10-05T17:16:30.640Z,15.56
2022-10-05T17:19:34.266Z,15.46
2022-10-05T17:22:59.142Z,15.38
2022-10-05T17:26:22.712Z,15.26
2022-10-05T17:29:54.734Z,15.21
2022-10-05T17:33:14.189Z,15.15
2022-10-05T17:36:18.734Z,15.06
2022-10-05T17:39:23.484Z,14.97
2022-10-05T17:42:31.823Z,14.91
2022-10-05T17:45:34.574Z,14.84
2022-10-05T17:48:49.148Z,14.79
2022-10-05T17:52:10.364Z,14.71
2022-10-05T17:55:27.028Z,14.62
2022-10-05T17:58:29.820Z,14.51
2022-10-05T18:01:33.947Z,14.44
2022-10-05T18:04:42.168Z,14.39
2022-10-05T18:08:10.366Z,14.36
2022-10-05T18:11:28.461Z,14.29
2022-10-05T18:14:50.497Z,14.20
2022-10-05T18:17:59.639Z,14.15
2022-10-05T18:21:14.698Z,14.13
2022-10-05T18:24:25.344Z,14.10
2022-10-05T18:27:50.406Z,14.02
2022-10-05T18:31:32.342Z,13.97
2022-10-05T18:34:45.339Z,13.93
2022-10-05T18:37:55.484Z,13.88
2022-10-05T18:41:12.827Z,13.86
2022-10-05T18:45:00.576Z,13.81
2022-10-05T18:48:06.706Z,13.72
2022-10-05T18:51:36.761Z,13.67
2022-10-05T18:55:06.139Z,13.62
2022-10-05T18:58:11.201Z,13.55
2022-10-05T19:01:28.000Z,13.49
2022-10-05T19:04:43.488Z,13.45
2022-10-05T19:08:01.700Z,13.42
2022-10-05T19:11:04.900Z,13.39
2022-10-05T19:14:45.367Z,13.33
2022-10-05T19:18:06.654Z,13.29
2022-10-05T19:21:18.590Z,13.27
2022-10-05T19:24:55.126Z,13.24
2022-10-05T19:28:17.266Z,13.18
2022-10-05T19:31:29.533Z,13.14
2022-10-05T19:34:44.962Z,13.11
2022-10-05T19:38:03.595Z,13.07
2022-10-05T19:41:12.271Z,13.00
2022-10-05T19:44:38.411Z,12.99
2022-10-05T19:47:52.998Z,12.96
2022-10-05T19:50:58.548Z,12.87
2022-10-05T19:54:03.388Z,12.87
2022-10-05T19:57:17.108Z,12.79
2022-10-05T20:00:25.611Z,12.72
2022-10-05T20:03:30.366Z,12.72
2022-10-05T20:06:33.748Z,12.72
2022-10-05T20:10:02.212Z,12.68
2022-10-05T20:13:08.596Z,12.66
2022-10-05T20:16:36.265Z,12.62
2022-10-05T20:19:54.509Z,12.59
2022-10-05T20:23:21.082Z,12.56
2022-10-05T20:27:02.421Z,12.54
2022-10-05T20:30:06.393Z,12.54
2022-10-05T20:33:14.637Z,12.54
2022-10-05T20:36:17.381Z,12.47
2022-10-05T20:39:21.330Z,12.44
2022-10-05T20:42:24.217Z,12.40
2022-10-05T20:45:26.760Z,12.39
2022-10-05T20:48:29.971Z,12.40
2022-10-05T20:51:32.825Z,12.40
2022-10-05T20:54:36.777Z,12.32
2022-10-05T20:57:42.236Z,12.33
2022-10-05T21:01:06.145Z,12.35
2022-10-05T21:04:09.639Z,12.29
2022-10-05T21:07:12.451Z,12.35
2022-10-05T21:10:15.190Z,12.24
2022-10-05T21:13:18.464Z,12.20
2022-10-05T21:16:21.113Z,12.18
2022-10-05T21:19:23.925Z,12.21
2022-10-05T21:22:26.379Z,12.19
2022-10-05T21:25:29.273Z,12.20
2022-10-05T21:28:32.344Z,12.20
2022-10-05T21:31:35.569Z,12.17
2022-10-05T21:34:38.832Z,12.09
2022-10-05T21:37:41.694Z,12.11
2022-10-05T21:40:46.123Z,12.11
2022-10-05T21:43:49.275Z,12.11
2022-10-05T21:46:51.991Z,12.08
2022-10-05T21:49:54.890Z,12.04
2022-10-05T21:52:58.869Z,12.02
2022-10-05T21:56:03.413Z,11.98
2022-10-05T21:59:09.588Z,12.00
2022-10-05T22:02:12.400Z,11.93
2022-10-05T22:05:15.594Z,11.87
2022-10-05T22:08:24.563Z,11.80
2022-10-05T22:11:28.998Z,11.80
2022-10-05T22:14:32.182Z,11.76
2022-10-05T22:17:35.886Z,11.76
2022-10-05T22:20:38.522Z,11.75
2022-10-05T22:23:42.658Z,11.73
2022-10-05T22:26:47.254Z,11.75
2022-10-05T22:29:51.385Z,11.76
2022-10-05T22:32:53.955Z,11.75
2022-10-05T22:36:00.285Z,11.75
2022-10-05T22:39:03.667Z,11.75
2022-10-05T22:42:06.981Z,11.75
2022-10-05T22:45:09.691Z,11.73
2022-10-05T22:48:12.723Z,11.71
2022-10-05T22:51:15.892Z,11.67
2022-10-05T22:58:54.818Z,11.72
2022-10-05T23:01:58.340Z,11.70
2022-10-05T23:05:00.982Z,11.71
2022-10-05T23:08:03.998Z,11.73
2022-10-05T23:11:18.386Z,11.72
2022-10-05T23:14:21.329Z,11.72
2022-10-05T23:17:23.899Z,11.69
2022-10-05T23:20:26.970Z,11.68
2022-10-05T23:23:29.552Z,11.69
2022-10-05T23:26:33.465Z,11.72
2022-10-05T23:29:35.975Z,11.72
2022-10-05T23:32:43.484Z,11.69
2022-10-05T23:35:46.033Z,11.70
2022-10-05T23:38:49.158Z,11.66
2022-10-05T23:41:51.751Z,11.66
2022-10-05T23:44:54.500Z,11.67
2022-10-05T23:47:56.970Z,11.68
2022-10-05T23:51:00.197Z,11.67
2022-10-05T23:54:02.681Z,11.68
2022-10-05T23:57:05.433Z,11.68
